Time;durP1;ratioP1;P1;durP2;ratioP2;P2;SDS_P1;SDS_P2;PMS_P1;PMS_P2;Temp;Humidity;BMP_temperature;BMP_pressure;BME280_temperature;BME280_humidity;BME280_pressure;Samples;Min_cycle;Max_cycle;Signal;HPM_P1;HPM_P2
2022/11/13 00:01:42;;;;;;;3.90;3.80;;;;;;;;;;4990168;28;20451;-68
2022/11/13 00:04:09;;;;;;;4.43;4.23;;;;;;;;;;4993659;28;20932;-68
2022/11/13 00:06:35;;;;;;;5.17;4.87;;;;;;;;;;4991590;28;20433;-67
2022/11/13 00:09:01;;;;;;;5.40;4.90;;;;;;;;;;4993403;28;20417;-68
2022/11/13 00:11:27;;;;;;;4.20;4.00;;;;;;;;;;4992974;28;20417;-68
2022/11/13 00:13:53;;;;;;;4.90;4.70;;;;;;;;;;4991172;28;20440;-67
2022/11/13 00:16:20;;;;;;;4.53;4.30;;;;;;;;;;4991533;28;20433;-68
2022/11/13 00:18:47;;;;;;;4.10;3.90;;;;;;;;;;4993394;28;20495;-68
2022/11/13 00:21:14;;;;;;;4.13;3.70;;;;;;;;;;4992210;28;20498;-68
2022/11/13 00:23:40;;;;;;;4.40;4.20;;;;;;;;;;4993255;28;20433;-68
2022/11/13 00:26:11;;;;;;;4.40;4.20;;;;;;;;;;4989523;28;20499;-68
2022/11/13 00:28:37;;;;;;;3.83;3.63;;;;;;;;;;4992991;28;20451;-68
2022/11/13 00:31:03;;;;;;;5.40;5.00;;;;;;;;;;4990665;28;20437;-68
2022/11/13 00:33:29;;;;;;;5.70;4.50;;;;;;;;;;4993176;28;20439;-68
2022/11/13 00:36:01;;;;;;;4.97;4.63;;;;;;;;;;4991453;28;20417;-68
2022/11/13 00:38:27;;;;;;;3.60;3.50;;;;;;;;;;4992480;28;20563;-68
2022/11/13 00:40:53;;;;;;;4.30;4.00;;;;;;;;;;4989407;28;20575;-67
2022/11/13 00:43:19;;;;;;;3.70;3.60;;;;;;;;;;4992742;28;20425;-68
2022/11/13 00:45:45;;;;;;;4.37;4.07;;;;;;;;;;4990305;28;20937;-68
2022/11/13 00:48:11;;;;;;;3.90;3.70;;;;;;;;;;4992877;28;20417;-68
2022/11/13 00:50:37;;;;;;;3.80;3.57;;;;;;;;;;4991259;28;20460;-68
2022/11/13 00:53:03;;;;;;;4.13;3.93;;;;;;;;;;4992576;28;20468;-68
2022/11/13 00:55:29;;;;;;;4.37;4.10;;;;;;;;;;4987248;28;20478;-68
2022/11/13 00:57:55;;;;;;;4.43;4.23;;;;;;;;;;4991905;28;20429;-68
2022/11/13 01:00:21;;;;;;;5.20;4.80;;;;;;;;;;4992300;28;20495;-68
2022/11/13 01:02:47;;;;;;;4.77;4.47;;;;;;;;;;4992258;28;20425;-67
2022/11/13 01:05:13;;;;;;;4.10;4.00;;;;;;;;;;4990713;28;20934;-68
2022/11/13 01:07:39;;;;;;;2.83;2.77;;;;;;;;;;4990405;28;20815;-68
2022/11/13 01:10:05;;;;;;;3.50;3.30;;;;;;;;;;4991744;28;20431;-68
2022/11/13 01:12:31;;;;;;;4.17;3.97;;;;;;;;;;4991213;28;20468;-67
2022/11/13 01:14:57;;;;;;;3.70;3.60;;;;;;;;;;4989361;28;20523;-68
2022/11/13 01:17:23;;;;;;;3.93;3.63;;;;;;;;;;4992585;28;20461;-68
2022/11/13 01:19:49;;;;;;;3.60;3.40;;;;;;;;;;4992168;28;20472;-67
2022/11/13 01:22:15;;;;;;;3.57;3.27;;;;;;;;;;4989693;28;21012;-68
2022/11/13 01:24:41;;;;;;;4.20;4.00;;;;;;;;;;4992542;28;20425;-68
2022/11/13 01:27:07;;;;;;;3.90;3.60;;;;;;;;;;4990737;28;20491;-68
2022/11/13 01:29:33;;;;;;;3.73;3.53;;;;;;;;;;4986980;28;20441;-67
2022/11/13 01:31:59;;;;;;;3.87;3.67;;;;;;;;;;4990813;28;20509;-69
2022/11/13 01:34:25;;;;;;;8.13;3.30;;;;;;;;;;4991356;28;20432;-68
2022/11/13 01:36:51;;;;;;;3.70;3.30;;;;;;;;;;4989627;28;20433;-68
2022/11/13 01:39:17;;;;;;;2.70;2.60;;;;;;;;;;4991484;28;20861;-67
2022/11/13 01:41:43;;;;;;;3.10;3.00;;;;;;;;;;4988525;28;20532;-68
2022/11/13 01:44:12;;;;;;;2.97;2.77;;;;;;;;;;4991683;28;21165;-68
2022/11/13 01:46:41;;;;;;;2.93;2.80;;;;;;;;;;4987350;28;20969;-68
2022/11/13 01:49:10;;;;;;;3.20;3.10;;;;;;;;;;4990478;28;20425;-68
2022/11/13 01:51:38;;;;;;;3.10;3.00;;;;;;;;;;4990587;28;20425;-67
2022/11/13 01:54:06;;;;;;;2.30;2.30;;;;;;;;;;4989377;28;20445;-68
2022/11/13 01:56:32;;;;;;;2.27;2.23;;;;;;;;;;4989268;28;20841;-67
2022/11/13 01:59:04;;;;;;;2.93;2.93;;;;;;;;;;4986893;28;20451;-68
2022/11/13 02:01:30;;;;;;;3.27;3.17;;;;;;;;;;4991011;28;20508;-68
2022/11/13 02:03:56;;;;;;;3.20;3.10;;;;;;;;;;4990328;28;20448;-68
2022/11/13 02:06:22;;;;;;;3.07;2.93;;;;;;;;;;4990679;28;20851;-68
2022/11/13 02:08:49;;;;;;;2.10;2.10;;;;;;;;;;4990149;28;20435;-68
2022/11/13 02:11:15;;;;;;;2.87;2.77;;;;;;;;;;4988430;28;20454;-68
2022/11/13 02:13:42;;;;;;;2.47;2.47;;;;;;;;;;4983866;28;20944;-67
2022/11/13 02:16:09;;;;;;;3.80;3.60;;;;;;;;;;4989864;28;20448;-67
2022/11/13 02:18:36;;;;;;;2.33;2.33;;;;;;;;;;4991174;28;20421;-68
2022/11/13 02:21:02;;;;;;;2.30;2.30;;;;;;;;;;4990462;28;20480;-68
2022/11/13 02:23:48;;;;;;;2.50;2.50;;;;;;;;;;4987506;28;20452;-68
2022/11/13 02:26:16;;;;;;;4.83;2.97;;;;;;;;;;4995464;28;20433;-68
2022/11/13 02:28:42;;;;;;;3.10;1.63;;;;;;;;;;4991250;28;20483;-68
2022/11/13 02:31:08;;;;;;;2.93;2.83;;;;;;;;;;4989190;28;20448;-68
2022/11/13 02:33:34;;;;;;;2.30;2.20;;;;;;;;;;4988503;28;21016;-67
2022/11/13 02:36:01;;;;;;;4.00;2.27;;;;;;;;;;4989660;28;20944;-68
2022/11/13 02:38:26;;;;;;;2.27;2.27;;;;;;;;;;4989803;28;20469;-67
2022/11/13 02:40:52;;;;;;;2.30;2.30;;;;;;;;;;4990428;28;20979;-67
2022/11/13 02:43:18;;;;;;;2.47;2.37;;;;;;;;;;4989334;28;20429;-68
2022/11/13 02:45:44;;;;;;;2.63;2.53;;;;;;;;;;4988635;28;20445;-67
2022/11/13 02:48:10;;;;;;;1.97;1.97;;;;;;;;;;4990621;28;20417;-67
2022/11/13 02:50:36;;;;;;;2.20;2.20;;;;;;;;;;4986854;28;20460;-68
2022/11/13 02:53:03;;;;;;;2.17;2.17;;;;;;;;;;4990426;28;20475;-68
2022/11/13 02:55:29;;;;;;;2.60;2.40;;;;;;;;;;4988029;28;20437;-68
2022/11/13 02:57:55;;;;;;;2.23;2.23;;;;;;;;;;4990697;28;20467;-67
2022/11/13 03:00:21;;;;;;;2.30;2.30;;;;;;;;;;4989880;28;20493;-68
2022/11/13 03:02:47;;;;;;;1.93;1.93;;;;;;;;;;4990438;28;20413;-67
2022/11/13 03:05:13;;;;;;;1.50;1.50;;;;;;;;;;4987401;28;20781;-68
2022/11/13 03:07:39;;;;;;;2.00;2.00;;;;;;;;;;4989229;28;20464;-68
2022/11/13 03:10:06;;;;;;;2.13;2.13;;;;;;;;;;4988809;28;20441;-68
2022/11/13 03:12:32;;;;;;;2.10;2.00;;;;;;;;;;4990074;28;20448;-67
2022/11/13 03:14:58;;;;;;;2.10;2.10;;;;;;;;;;4988187;28;20925;-68
2022/11/13 03:17:25;;;;;;;1.90;1.90;;;;;;;;;;4988419;28;20473;-67
2022/11/13 03:19:51;;;;;;;2.03;2.03;;;;;;;;;;4985828;28;20519;-67
2022/11/13 03:22:17;;;;;;;5.33;3.43;;;;;;;;;;4989646;28;20436;-67
2022/11/13 03:24:43;;;;;;;1.87;1.83;;;;;;;;;;4990301;28;20909;-68
2022/11/13 03:27:09;;;;;;;1.93;1.93;;;;;;;;;;4986264;28;20855;-67
2022/11/13 03:29:35;;;;;;;2.70;2.30;;;;;;;;;;4989048;28;20429;-68
2022/11/13 03:32:02;;;;;;;1.60;1.60;;;;;;;;;;4990083;28;20429;-67
2022/11/13 03:34:28;;;;;;;1.50;1.50;;;;;;;;;;4988773;28;20437;-68
2022/11/13 03:36:54;;;;;;;1.70;1.60;;;;;;;;;;4992818;28;20448;-68
2022/11/13 03:39:20;;;;;;;2.10;2.10;;;;;;;;;;4993334;28;20475;-68
2022/11/13 03:41:46;;;;;;;1.50;1.50;;;;;;;;;;4993860;28;20429;-67
2022/11/13 03:44:12;;;;;;;1.40;1.40;;;;;;;;;;4992449;28;20425;-68
2022/11/13 03:46:38;;;;;;;1.80;1.80;;;;;;;;;;4992315;28;20441;-68
2022/11/13 03:49:04;;;;;;;1.90;1.80;;;;;;;;;;4993173;28;20516;-68
2022/11/13 03:51:30;;;;;;;2.30;2.20;;;;;;;;;;4993400;28;20443;-68
2022/11/13 03:53:55;;;;;;;1.57;1.57;;;;;;;;;;4993652;28;20436;-67
2022/11/13 03:56:21;;;;;;;2.00;2.00;;;;;;;;;;4990852;28;20807;-67
2022/11/13 03:58:47;;;;;;;2.23;2.10;;;;;;;;;;4992229;28;20424;-68
2022/11/13 04:01:13;;;;;;;2.17;2.17;;;;;;;;;;4993366;28;20858;-67
2022/11/13 04:03:40;;;;;;;2.47;2.37;;;;;;;;;;4993516;28;20433;-68
2022/11/13 04:06:06;;;;;;;2.87;2.77;;;;;;;;;;4992097;28;20913;-67
2022/11/13 04:08:31;;;;;;;2.07;2.03;;;;;;;;;;4991349;28;20441;-68
2022/11/13 04:11:07;;;;;;;1.80;1.80;;;;;;;;;;4990893;28;20567;-67
2022/11/13 04:13:33;;;;;;;2.00;2.00;;;;;;;;;;4991851;28;20418;-68
2022/11/13 04:15:59;;;;;;;2.67;2.60;;;;;;;;;;4991505;28;20427;-68
2022/11/13 04:18:25;;;;;;;2.13;2.13;;;;;;;;;;4989402;28;20968;-68
2022/11/13 04:20:51;;;;;;;1.90;1.90;;;;;;;;;;4990455;28;20484;-67
2022/11/13 04:23:17;;;;;;;2.30;2.20;;;;;;;;;;4992337;28;20432;-67
2022/11/13 04:25:44;;;;;;;1.80;1.80;;;;;;;;;;4993144;28;20972;-68
2022/11/13 04:28:10;;;;;;;2.20;2.00;;;;;;;;;;4992126;28;20440;-68
2022/11/13 04:30:36;;;;;;;1.87;1.83;;;;;;;;;;4991731;28;20972;-68
2022/11/13 04:33:02;;;;;;;2.83;2.57;;;;;;;;;;4993292;28;20436;-67
2022/11/13 04:35:28;;;;;;;2.07;2.00;;;;;;;;;;4992410;28;20417;-68
2022/11/13 04:37:54;;;;;;;1.83;1.83;;;;;;;;;;4990818;28;20480;-68
2022/11/13 04:40:20;;;;;;;3.03;2.93;;;;;;;;;;4991309;28;20508;-67
2022/11/13 04:42:49;;;;;;;2.47;2.37;;;;;;;;;;4992911;28;20421;-67
2022/11/13 04:45:16;;;;;;;2.50;1.93;;;;;;;;;;4992682;28;20566;-67
2022/11/13 04:47:42;;;;;;;2.03;1.93;;;;;;;;;;4990391;28;20871;-68
2022/11/13 04:50:08;;;;;;;1.80;1.80;;;;;;;;;;4987792;28;20499;-68
2022/11/13 04:52:34;;;;;;;2.17;2.17;;;;;;;;;;4991388;28;20473;-68
2022/11/13 04:55:00;;;;;;;1.97;1.80;;;;;;;;;;4992082;28;20437;-67
2022/11/13 04:57:26;;;;;;;1.53;1.53;;;;;;;;;;4992800;28;20536;-67
2022/11/13 04:59:52;;;;;;;2.37;2.27;;;;;;;;;;4989905;28;20625;-68
2022/11/13 05:02:18;;;;;;;1.93;1.93;;;;;;;;;;4991251;28;20943;-67
2022/11/13 05:04:44;;;;;;;1.20;1.20;;;;;;;;;;4990803;28;20464;-68
2022/11/13 05:07:10;;;;;;;1.87;1.87;;;;;;;;;;4992491;28;20469;-67
2022/11/13 05:09:36;;;;;;;1.47;1.37;;;;;;;;;;4991244;28;20434;-68
2022/11/13 05:12:06;;;;;;;1.80;1.70;;;;;;;;;;4988168;28;21023;-68
2022/11/13 05:14:32;;;;;;;2.20;2.10;;;;;;;;;;4992648;28;20425;-67
2022/11/13 05:16:58;;;;;;;1.90;1.90;;;;;;;;;;4991138;28;20831;-68
2022/11/13 05:19:24;;;;;;;2.37;2.27;;;;;;;;;;4992293;28;20437;-67
2022/11/13 05:21:50;;;;;;;2.17;2.07;;;;;;;;;;4984321;28;20593;-68
2022/11/13 05:24:16;;;;;;;1.83;1.83;;;;;;;;;;4990352;28;20449;-68
2022/11/13 05:26:42;;;;;;;2.93;1.60;;;;;;;;;;4990156;28;20557;-67
2022/11/13 05:29:08;;;;;;;1.87;1.87;;;;;;;;;;4992013;28;20429;-68
2022/11/13 05:31:34;;;;;;;1.80;1.67;;;;;;;;;;4989319;28;20441;-67
2022/11/13 05:34:02;;;;;;;1.80;1.80;;;;;;;;;;4992137;28;20425;-68
2022/11/13 05:36:28;;;;;;;2.23;2.13;;;;;;;;;;4991293;28;20520;-68
2022/11/13 05:38:54;;;;;;;1.80;1.70;;;;;;;;;;4989755;28;20516;-67
2022/11/13 05:41:21;;;;;;;2.00;1.90;;;;;;;;;;4990276;28;20485;-68
2022/11/13 05:43:47;;;;;;;1.93;1.93;;;;;;;;;;4991916;28;20413;-67
2022/11/13 05:46:13;;;;;;;2.43;2.33;;;;;;;;;;4991287;28;20519;-68
2022/11/13 05:48:40;;;;;;;1.70;1.70;;;;;;;;;;4990722;28;20515;-68
2022/11/13 05:51:10;;;;;;;1.77;1.67;;;;;;;;;;4991039;28;20425;-68
2022/11/13 05:53:36;;;;;;;2.27;2.17;;;;;;;;;;4989923;28;20480;-67
2022/11/13 05:56:25;;;;;;;2.27;2.27;;;;;;;;;;4990511;28;21307;-68
2022/11/13 05:58:52;;;;;;;4.20;1.70;;;;;;;;;;4995074;28;20452;-68
2022/11/13 06:01:23;;;;;;;2.07;1.93;;;;;;;;;;4990242;28;20496;-67
2022/11/13 06:03:49;;;;;;;2.20;2.10;;;;;;;;;;4988412;28;20433;-68
2022/11/13 06:06:17;;;;;;;1.73;1.63;;;;;;;;;;4987921;28;20455;-68
2022/11/13 06:08:43;;;;;;;2.70;2.50;;;;;;;;;;4991678;28;20504;-67
2022/11/13 06:11:10;;;;;;;1.80;1.80;;;;;;;;;;4990912;28;20491;-67
2022/11/13 06:13:36;;;;;;;1.37;1.37;;;;;;;;;;4988325;28;20492;-68
2022/11/13 06:16:07;;;;;;;2.30;2.20;;;;;;;;;;4990979;28;20425;-68
2022/11/13 06:18:33;;;;;;;2.50;2.27;;;;;;;;;;4988922;28;20429;-68
2022/11/13 06:21:03;;;;;;;1.70;1.70;;;;;;;;;;4990336;28;20481;-68
2022/11/13 06:23:29;;;;;;;1.57;1.57;;;;;;;;;;4988097;28;20444;-68
2022/11/13 06:26:02;;;;;;;2.13;2.13;;;;;;;;;;4986902;28;20428;-68
2022/11/13 06:28:28;;;;;;;2.40;2.30;;;;;;;;;;4988975;28;20787;-67
2022/11/13 06:30:54;;;;;;;2.37;2.30;;;;;;;;;;4987378;28;20487;-68
2022/11/13 06:33:20;;;;;;;2.00;2.00;;;;;;;;;;4990786;28;20457;-68
2022/11/13 06:35:45;;;;;;;2.13;2.03;;;;;;;;;;4989648;28;20444;-68
2022/11/13 06:38:11;;;;;;;2.10;2.00;;;;;;;;;;4990636;28;20516;-68
2022/11/13 06:40:38;;;;;;;2.10;2.10;;;;;;;;;;4986769;28;20546;-68
2022/11/13 06:43:04;;;;;;;2.40;2.30;;;;;;;;;;4989775;28;20534;-67
2022/11/13 06:45:30;;;;;;;2.60;2.50;;;;;;;;;;4990440;28;20643;-68
2022/11/13 06:47:56;;;;;;;2.60;2.40;;;;;;;;;;4979640;28;20532;-67
2022/11/13 06:50:22;;;;;;;2.00;2.00;;;;;;;;;;4984810;28;20440;-67
2022/11/13 06:52:48;;;;;;;1.80;1.73;;;;;;;;;;4988888;28;20468;-68
2022/11/13 06:55:14;;;;;;;2.13;2.13;;;;;;;;;;4983457;28;20436;-68
2022/11/13 06:57:39;;;;;;;2.20;2.10;;;;;;;;;;4985724;28;20500;-68
2022/11/13 07:00:06;;;;;;;2.03;1.93;;;;;;;;;;4986675;28;21047;-70
2022/11/13 07:02:32;;;;;;;2.70;2.60;;;;;;;;;;4987357;28;20441;-70
2022/11/13 07:04:58;;;;;;;2.73;2.63;;;;;;;;;;4983332;28;20449;-68
2022/11/13 07:07:24;;;;;;;1.83;1.83;;;;;;;;;;4988543;28;20423;-68
2022/11/13 07:09:50;;;;;;;1.90;1.90;;;;;;;;;;4987305;28;20820;-68
2022/11/13 07:12:16;;;;;;;1.80;1.80;;;;;;;;;;4989341;28;20433;-69
2022/11/13 07:14:42;;;;;;;2.50;2.30;;;;;;;;;;4989657;28;20761;-69
2022/11/13 07:17:07;;;;;;;2.20;2.20;;;;;;;;;;4984918;28;20437;-69
2022/11/13 07:19:33;;;;;;;2.20;2.20;;;;;;;;;;4983660;28;20433;-68
2022/11/13 07:21:59;;;;;;;2.30;2.30;;;;;;;;;;4981031;28;20449;-69
2022/11/13 07:24:25;;;;;;;3.00;2.80;;;;;;;;;;4988676;28;20886;-69
2022/11/13 07:26:51;;;;;;;2.57;2.47;;;;;;;;;;4984153;28;20940;-68
2022/11/13 07:29:17;;;;;;;1.87;1.77;;;;;;;;;;4985078;28;20496;-69
2022/11/13 07:31:43;;;;;;;2.80;2.70;;;;;;;;;;4989485;28;20425;-69
2022/11/13 07:34:09;;;;;;;1.60;1.60;;;;;;;;;;4987655;28;20941;-69
2022/11/13 07:36:35;;;;;;;2.17;2.07;;;;;;;;;;4989648;28;20513;-69
2022/11/13 07:39:01;;;;;;;2.90;2.80;;;;;;;;;;4989842;28;20485;-69
2022/11/13 07:41:27;;;;;;;2.50;2.50;;;;;;;;;;4983781;28;20846;-68
2022/11/13 07:43:53;;;;;;;2.10;2.10;;;;;;;;;;4989655;28;20421;-68
2022/11/13 07:46:19;;;;;;;2.10;2.10;;;;;;;;;;4988111;28;20520;-69
2022/11/13 07:48:45;;;;;;;1.93;1.93;;;;;;;;;;4988484;28;20445;-68
2022/11/13 07:51:12;;;;;;;1.30;1.20;;;;;;;;;;4982520;28;20433;-69
2022/11/13 07:53:37;;;;;;;1.90;1.80;;;;;;;;;;4983032;28;20473;-68
2022/11/13 07:56:03;;;;;;;1.97;1.97;;;;;;;;;;4984276;28;20452;-69
2022/11/13 07:58:29;;;;;;;2.27;2.17;;;;;;;;;;4985574;28;20854;-69
2022/11/13 08:01:00;;;;;;;2.40;2.37;;;;;;;;;;4984048;28;20993;-68
2022/11/13 08:03:26;;;;;;;1.60;1.60;;;;;;;;;;4989028;28;20483;-67
2022/11/13 08:05:53;;;;;;;1.80;1.80;;;;;;;;;;4986054;28;20895;-68
2022/11/13 08:08:19;;;;;;;2.40;2.40;;;;;;;;;;4984192;28;20428;-67
2022/11/13 08:10:45;;;;;;;2.23;2.23;;;;;;;;;;4982937;28;20455;-66
2022/11/13 08:13:11;;;;;;;1.97;1.90;;;;;;;;;;4988731;28;20448;-67
2022/11/13 08:15:37;;;;;;;2.50;2.27;;;;;;;;;;4987335;28;20436;-67
2022/11/13 08:18:03;;;;;;;2.30;2.30;;;;;;;;;;4983302;28;21061;-67
2022/11/13 08:20:30;;;;;;;2.07;1.97;;;;;;;;;;4983830;28;21059;-68
2022/11/13 08:22:57;;;;;;;1.90;1.90;;;;;;;;;;4985200;28;20438;-67
2022/11/13 08:25:23;;;;;;;1.90;1.80;;;;;;;;;;4989852;28;20464;-67
2022/11/13 08:27:51;;;;;;;1.87;1.87;;;;;;;;;;4989398;28;20461;-67
2022/11/13 08:30:18;;;;;;;2.10;2.10;;;;;;;;;;4985998;28;20567;-68
2022/11/13 08:32:44;;;;;;;2.10;2.00;;;;;;;;;;4983612;28;20803;-68
2022/11/13 08:35:10;;;;;;;2.37;2.27;;;;;;;;;;4990982;28;20448;-67
2022/11/13 08:37:36;;;;;;;2.40;2.40;;;;;;;;;;4990228;28;20429;-68
2022/11/13 08:40:02;;;;;;;3.23;3.23;;;;;;;;;;4987920;28;20480;-68
2022/11/13 08:42:28;;;;;;;1.97;1.97;;;;;;;;;;4988831;28;20449;-68
2022/11/13 08:44:54;;;;;;;2.63;2.53;;;;;;;;;;4989076;28;20488;-67
2022/11/13 08:47:20;;;;;;;2.27;2.17;;;;;;;;;;4989045;28;20440;-69
2022/11/13 08:49:46;;;;;;;3.10;2.90;;;;;;;;;;4986440;28;20437;-68
2022/11/13 08:52:12;;;;;;;3.93;3.70;;;;;;;;;;4996385;28;20899;-68
2022/11/13 08:54:38;;;;;;;3.50;3.20;;;;;;;;;;4988977;28;20755;-68
2022/11/13 08:57:04;;;;;;;2.70;2.60;;;;;;;;;;4985771;28;20428;-68
2022/11/13 08:59:31;;;;;;;3.10;2.90;;;;;;;;;;4989024;28;20430;-67
2022/11/13 09:01:58;;;;;;;2.57;2.57;;;;;;;;;;4987789;28;20472;-68
2022/11/13 09:04:25;;;;;;;2.33;2.27;;;;;;;;;;4989514;28;20440;-67
2022/11/13 09:06:51;;;;;;;2.23;2.13;;;;;;;;;;4992216;28;20429;-68
2022/11/13 09:09:17;;;;;;;2.43;2.10;;;;;;;;;;4989791;28;20787;-67
2022/11/13 09:11:44;;;;;;;2.60;2.60;;;;;;;;;;4988278;28;20432;-67
2022/11/13 09:14:10;;;;;;;1.80;1.80;;;;;;;;;;4988527;28;20460;-66
2022/11/13 09:16:36;;;;;;;1.93;1.93;;;;;;;;;;4990170;28;20937;-66
2022/11/13 09:19:02;;;;;;;2.50;2.30;;;;;;;;;;4983344;28;20442;-66
2022/11/13 09:21:29;;;;;;;2.20;2.20;;;;;;;;;;4986659;28;21045;-67
2022/11/13 09:23:55;;;;;;;2.00;1.90;;;;;;;;;;4986201;28;20445;-67
2022/11/13 09:26:21;;;;;;;2.30;2.30;;;;;;;;;;4985350;28;20445;-67
2022/11/13 09:28:47;;;;;;;3.43;3.23;;;;;;;;;;4990162;28;20452;-66
2022/11/13 09:31:13;;;;;;;2.30;2.30;;;;;;;;;;4989453;28;20511;-67
2022/11/13 09:33:39;;;;;;;2.03;2.03;;;;;;;;;;4988512;28;20437;-67
2022/11/13 09:36:13;;;;;;;2.13;2.03;;;;;;;;;;4986443;28;20445;-67
2022/11/13 09:38:39;;;;;;;3.40;3.40;;;;;;;;;;4991336;28;20812;-68
2022/11/13 09:41:10;;;;;;;3.10;2.90;;;;;;;;;;4988822;28;20920;-67
2022/11/13 09:43:50;;;;;;;14.70;8.10;;;;;;;;;;4991675;28;20572;-67
2022/11/13 09:46:25;;;;;;;3.57;3.47;;;;;;;;;;4983968;28;20475;-68
2022/11/13 09:48:58;;;;;;;3.27;2.37;;;;;;;;;;4988971;28;20440;-67
2022/11/13 09:51:27;;;;;;;1.90;1.90;;;;;;;;;;4985880;28;20425;-68
2022/11/13 09:53:53;;;;;;;2.67;2.57;;;;;;;;;;4985899;28;20536;-69
2022/11/13 09:56:19;;;;;;;4.90;4.60;;;;;;;;;;4984584;28;20437;-68
2022/11/13 09:58:48;;;;;;;2.47;2.23;;;;;;;;;;4988110;28;20429;-67
2022/11/13 10:01:19;;;;;;;4.77;4.40;;;;;;;;;;4986633;28;20491;-68
2022/11/13 10:03:48;;;;;;;3.90;3.70;;;;;;;;;;4988595;28;20448;-68
2022/11/13 10:06:43;;;;;;;3.50;3.30;;;;;;;;;;4988696;28;20483;-68
2022/11/13 10:09:29;;;;;;;2.43;2.40;;;;;;;;;;4997441;28;20964;-67
2022/11/13 10:12:02;;;;;;;2.80;2.60;;;;;;;;;;4981865;28;20445;-67
2022/11/13 10:14:45;;;;;;;2.33;2.27;;;;;;;;;;4989389;28;20429;-68
2022/11/13 10:17:26;;;;;;;3.33;3.23;;;;;;;;;;4986863;28;20437;-67
2022/11/13 10:20:00;;;;;;;2.50;2.40;;;;;;;;;;4988461;28;21074;-67
2022/11/13 10:22:46;;;;;;;3.03;2.93;;;;;;;;;;4985146;28;20448;-68
2022/11/13 10:25:15;;;;;;;2.67;2.47;;;;;;;;;;4985836;28;20445;-67
2022/11/13 10:27:41;;;;;;;6.87;6.10;;;;;;;;;;4989656;28;20455;-68
2022/11/13 10:30:14;;;;;;;3.43;3.30;;;;;;;;;;4988861;28;20441;-67
2022/11/13 10:32:41;;;;;;;2.53;2.43;;;;;;;;;;4989406;28;20535;-68
2022/11/13 10:35:07;;;;;;;4.43;3.10;;;;;;;;;;4985168;28;20499;-68
2022/11/13 10:37:47;;;;;;;2.90;2.90;;;;;;;;;;4988782;28;20457;-68
2022/11/13 10:40:22;;;;;;;3.20;3.10;;;;;;;;;;4988183;28;20888;-67
2022/11/13 10:42:48;;;;;;;3.50;3.30;;;;;;;;;;4988428;28;20955;-67
2022/11/13 10:45:16;;;;;;;3.77;3.57;;;;;;;;;;4988611;28;20438;-66
2022/11/13 10:47:49;;;;;;;3.40;3.20;;;;;;;;;;5004272;28;20453;-67
2022/11/13 10:50:21;;;;;;;3.60;3.47;;;;;;;;;;4985804;28;20443;-67
2022/11/13 10:52:48;;;;;;;2.87;2.77;;;;;;;;;;4986805;28;20480;-67
2022/11/13 10:55:21;;;;;;;3.60;3.40;;;;;;;;;;4986416;28;20464;-67
2022/11/13 10:57:58;;;;;;;4.67;4.30;;;;;;;;;;4987894;28;20873;-67
2022/11/13 11:00:25;;;;;;;3.37;3.17;;;;;;;;;;4986485;28;20498;-67
2022/11/13 11:02:51;;;;;;;4.70;4.40;;;;;;;;;;4988173;28;20884;-67
2022/11/13 11:05:20;;;;;;;4.87;4.60;;;;;;;;;;4988012;28;20200;-67
2022/11/13 11:07:46;;;;;;;8.20;7.50;;;;;;;;;;4988939;28;20456;-66
2022/11/13 11:10:18;;;;;;;5.00;4.70;;;;;;;;;;4986766;28;20436;-67
2022/11/13 11:12:50;;;;;;;5.40;5.00;;;;;;;;;;4980838;28;20440;-67
2022/11/13 11:15:25;;;;;;;7.33;4.50;;;;;;;;;;4986595;28;20460;-66
2022/11/13 11:17:59;;;;;;;26.07;11.20;;;;;;;;;;4986781;28;20575;-66
2022/11/13 11:20:48;;;;;;;18.60;14.60;;;;;;;;;;4983998;28;20981;-67
2022/11/13 11:23:21;;;;;;;5.97;5.57;;;;;;;;;;4984575;28;20449;-67
2022/11/13 11:25:59;;;;;;;4.87;4.00;;;;;;;;;;4980918;28;20459;-68
2022/11/13 11:28:34;;;;;;;4.77;4.47;;;;;;;;;;4984811;28;20495;-67
2022/11/13 11:31:09;;;;;;;4.80;4.40;;;;;;;;;;4986361;28;20440;-68
2022/11/13 11:33:50;;;;;;;4.60;4.30;;;;;;;;;;4988725;28;21005;-68
2022/11/13 11:36:19;;;;;;;13.00;10.97;;;;;;;;;;4987118;28;20441;-68
2022/11/13 11:39:04;;;;;;;25.77;21.77;;;;;;;;;;4990490;28;20421;-67
2022/11/13 11:41:37;;;;;;;18.03;14.93;;;;;;;;;;4988718;28;20535;-68
2022/11/13 11:44:25;;;;;;;5.13;4.73;;;;;;;;;;4986844;28;20429;-68
2022/11/13 11:46:51;;;;;;;4.30;4.20;;;;;;;;;;4989989;28;20432;-67
2022/11/13 11:49:26;;;;;;;5.47;5.07;;;;;;;;;;4988808;28;20429;-67
2022/11/13 11:52:12;;;;;;;5.30;4.70;;;;;;;;;;4989443;28;20471;-67
2022/11/13 11:54:57;;;;;;;5.53;5.03;;;;;;;;;;4988497;28;20452;-67
2022/11/13 11:57:42;;;;;;;5.70;4.80;;;;;;;;;;4992236;28;20421;-66
2022/11/13 12:00:16;;;;;;;5.50;5.00;;;;;;;;;;4990622;28;21046;-67
2022/11/13 12:02:44;;;;;;;5.90;5.50;;;;;;;;;;4990847;28;20507;-67
2022/11/13 12:05:22;;;;;;;10.10;4.83;;;;;;;;;;4990063;28;20464;-67
2022/11/13 12:07:59;;;;;;;6.63;6.03;;;;;;;;;;4993831;28;20494;-67
2022/11/13 12:10:37;;;;;;;5.10;4.77;;;;;;;;;;4993231;28;20521;-68
2022/11/13 12:13:27;;;;;;;16.30;10.30;;;;;;;;;;4992947;28;20952;-68
2022/11/13 12:15:53;;;;;;;11.03;8.90;;;;;;;;;;4994660;28;20877;-68
2022/11/13 12:18:22;;;;;;;6.93;6.43;;;;;;;;;;4993475;28;20929;-68
2022/11/13 12:21:11;;;;;;;5.47;5.07;;;;;;;;;;4990513;28;20508;-68
2022/11/13 12:23:52;;;;;;;7.03;6.40;;;;;;;;;;4996688;28;20534;-67
2022/11/13 12:26:36;;;;;;;12.10;9.43;;;;;;;;;;4991576;28;20468;-67
2022/11/13 12:29:02;;;;;;;10.00;7.80;;;;;;;;;;4993541;28;20413;-68
2022/11/13 12:31:38;;;;;;;7.33;6.60;;;;;;;;;;4992922;28;20951;-67
2022/11/13 12:34:25;;;;;;;6.23;5.77;;;;;;;;;;4991970;28;20499;-67
2022/11/13 12:36:52;;;;;;;8.00;7.33;;;;;;;;;;4988780;28;20443;-68
2022/11/13 12:39:30;;;;;;;9.73;6.80;;;;;;;;;;4993177;28;20413;-67
2022/11/13 12:41:56;;;;;;;6.63;6.13;;;;;;;;;;4990685;28;20485;-68
2022/11/13 12:44:24;;;;;;;7.27;6.67;;;;;;;;;;4984379;28;20449;-68
2022/11/13 12:46:51;;;;;;;8.27;7.57;;;;;;;;;;4989533;28;20793;-68
2022/11/13 12:49:23;;;;;;;6.80;6.20;;;;;;;;;;4992812;28;20425;-68
2022/11/13 12:51:56;;;;;;;12.80;9.80;;;;;;;;;;4990629;28;21027;-68
2022/11/13 12:54:33;;;;;;;9.23;6.57;;;;;;;;;;4983595;28;20952;-69
2022/11/13 12:57:28;;;;;;;6.50;6.03;;;;;;;;;;4987313;28;20428;-68
2022/11/13 12:59:55;;;;;;;8.43;7.30;;;;;;;;;;5000260;28;20445;-68
2022/11/13 13:02:21;;;;;;;6.40;5.90;;;;;;;;;;4986529;28;20441;-68
2022/11/13 13:05:00;;;;;;;7.70;5.00;;;;;;;;;;4980582;28;20575;-68
2022/11/13 13:07:35;;;;;;;5.72;5.38;;;;;;;;;;4986395;28;21139;-69
2022/11/13 13:10:01;;;;;;;6.30;5.80;;;;;;;;;;4989679;28;20420;-68
2022/11/13 13:12:47;;;;;;;5.00;4.80;;;;;;;;;;4988631;28;21023;-68
2022/11/13 13:15:32;;;;;;;6.30;5.80;;;;;;;;;;4981141;28;20443;-67
2022/11/13 13:18:01;;;;;;;6.30;5.80;;;;;;;;;;4989428;28;20454;-67
2022/11/13 13:20:32;;;;;;;8.43;7.57;;;;;;;;;;4986472;28;20485;-69
2022/11/13 13:22:59;;;;;;;7.00;6.50;;;;;;;;;;4982332;28;20726;-67
2022/11/13 13:25:33;;;;;;;7.00;6.27;;;;;;;;;;4987859;28;21032;-67
2022/11/13 13:28:08;;;;;;;14.40;11.20;;;;;;;;;;4990731;28;20464;-67
2022/11/13 13:30:57;;;;;;;7.80;7.20;;;;;;;;;;4980563;28;20441;-68
2022/11/13 13:33:30;;;;;;;6.90;6.37;;;;;;;;;;5006869;28;20492;-67
2022/11/13 13:36:08;;;;;;;5.30;4.90;;;;;;;;;;4983961;28;20470;-67
2022/11/13 13:38:43;;;;;;;5.17;4.87;;;;;;;;;;4990983;28;20425;-67
2022/11/13 13:41:16;;;;;;;7.37;6.67;;;;;;;;;;4987882;28;20484;-67
2022/11/13 13:43:42;;;;;;;11.60;9.57;;;;;;;;;;4985939;28;20980;-66
2022/11/13 13:46:17;;;;;;;10.50;7.83;;;;;;;;;;4982570;28;20436;-66
2022/11/13 13:48:45;;;;;;;4.60;3.90;;;;;;;;;;4982492;28;20447;-67
2022/11/13 13:51:16;;;;;;;8.57;7.77;;;;;;;;;;4987025;28;20437;-67
2022/11/13 13:53:42;;;;;;;4.80;4.60;;;;;;;;;;4984827;28;20504;-67
2022/11/13 13:56:10;;;;;;;3.83;3.67;;;;;;;;;;4983020;28;20922;-67
2022/11/13 13:58:37;;;;;;;4.30;4.10;;;;;;;;;;4986058;28;20421;-68
2022/11/13 14:01:04;;;;;;;4.40;4.10;;;;;;;;;;4978152;28;20485;-68
2022/11/13 14:03:30;;;;;;;5.67;4.47;;;;;;;;;;4981698;28;20512;-68
2022/11/13 14:06:07;;;;;;;4.83;4.50;;;;;;;;;;4984914;28;20837;-68
2022/11/13 14:08:33;;;;;;;7.93;5.83;;;;;;;;;;4985307;28;20800;-68
2022/11/13 14:11:03;;;;;;;8.80;8.00;;;;;;;;;;4983967;28;20436;-68
2022/11/13 14:13:29;;;;;;;6.37;6.00;;;;;;;;;;4985812;28;20495;-68
2022/11/13 14:16:03;;;;;;;6.07;5.50;;;;;;;;;;4983263;28;20540;-68
2022/11/13 14:18:29;;;;;;;4.77;4.67;;;;;;;;;;4982782;28;20438;-68
2022/11/13 14:20:56;;;;;;;5.70;5.40;;;;;;;;;;4984506;28;20504;-67
2022/11/13 14:23:34;;;;;;;7.83;7.03;;;;;;;;;;4985827;28;20421;-67
2022/11/13 14:26:01;;;;;;;8.50;7.10;;;;;;;;;;4982202;28;20434;-68
2022/11/13 14:28:28;;;;;;;12.30;5.50;;;;;;;;;;4986923;28;20948;-68
2022/11/13 14:31:00;;;;;;;4.03;3.73;;;;;;;;;;4984892;28;20444;-68
2022/11/13 14:33:29;;;;;;;3.73;3.43;;;;;;;;;;4981124;28;20520;-68
2022/11/13 14:35:56;;;;;;;5.23;4.40;;;;;;;;;;4986136;28;20430;-67
2022/11/13 14:38:25;;;;;;;4.40;4.10;;;;;;;;;;4990813;28;20436;-68
2022/11/13 14:40:51;;;;;;;3.27;3.17;;;;;;;;;;4979998;28;20488;-68
2022/11/13 14:43:22;;;;;;;2.83;2.73;;;;;;;;;;4986527;28;20512;-67
2022/11/13 14:45:58;;;;;;;3.80;3.67;;;;;;;;;;4985164;28;20960;-67
2022/11/13 14:48:24;;;;;;;3.07;2.97;;;;;;;;;;4989486;28;20425;-67
2022/11/13 14:50:50;;;;;;;3.70;3.50;;;;;;;;;;4987715;28;20445;-66
2022/11/13 14:53:25;;;;;;;3.73;3.57;;;;;;;;;;4986877;28;20483;-67